Bookmark and Share
Track history (hours):
 

Kathy C

Last reported at 2014-Apr-12 23:03 UTC. Time now 2014-Apr-20 23:50 UTC.
Position N 53°21' W 002°55'.
Warning: this ship's position is 8 days out of date.

Length 106 m; draft 5.6 m.

Type: Cargo ship. MMSI: 235075591.

NotesDate/timePositionNaut miles runAvg speedWind from/ knotsBaromVisibWave heightAir tempDewpointWater temp
2014-Apr-12 23:03N 53°21' W 002°55'0 0.6
2014-Apr-12 22:32N 53°21' W 002°54'1 0.9
2014-Apr-12 21:33N 53°21' W 002°56'9 9.2
2014-Apr-12 20:34N 53°29' W 003°05'10 9.9
2014-Apr-12 19:31N 53°31' W 003°22'3 2.4
2014-Apr-12 18:15N 53°28' W 003°24'0 0.0
2014-Apr-12 17:30N 53°28' W 003°24'0 0.0
2014-Apr-12 13:25N 53°28' W 003°24'  
2014-Apr-07 09:29N 38°26' W 009°47'9 9.1
2014-Apr-07 08:33N 38°18' W 009°44'10 9.2
2014-Apr-07 07:31N 38°09' W 009°41'9 9.4
2014-Apr-07 06:33N 37°60' W 009°38'9 9.1
2014-Apr-07 05:33N 37°51' W 009°36'9 9.0
2014-Apr-07 04:32N 37°42' W 009°33'9 9.1
2014-Apr-07 03:33N 37°33' W 009°31'9 8.8
2014-Apr-07 02:33N 37°25' W 009°28'9 9.1
2014-Apr-07 01:34N 37°16' W 009°26'9 9.0
2014-Apr-07 00:33N 37°07' W 009°23'9 8.7
2014-Apr-06 23:33N 36°59' W 009°20'9 8.4
2014-Apr-06 22:32N 36°51' W 009°16'16 8.2
2014-Apr-06 20:31N 36°42' W 008°59'9 8.4
2014-Apr-06 19:28N 36°39' W 008°48'9 8.2
2014-Apr-06 18:25N 36°37' W 008°38'7 8.3
2014-Apr-06 17:32N 36°34' W 008°29'9 8.5
2014-Apr-06 16:27N 36°31' W 008°19'136 9.1
2014-Apr-06 01:33N 35°57' W 005°35'9 8.7
2014-Apr-06 00:34N 35°60' W 005°25'7 7.5
2014-Apr-05 23:34N 35°54' W 005°19'0 0.1
2014-Apr-05 22:31N 35°54' W 005°19'0 0.0
2014-Apr-05 21:31N 35°54' W 005°19'0 0.1
2014-Apr-05 20:33N 35°54' W 005°19'2 2.5
2014-Apr-05 19:33N 35°55' W 005°17'0 0.1
2014-Apr-05 18:33N 35°55' W 005°17'0 0.1
2014-Apr-05 17:33N 35°55' W 005°17'2 1.8
2014-Apr-05 16:33N 35°56' W 005°15'  

Dump ship's entire track history

sailing weather and tide predictions

Kathy C — 2CTI7 — position and weather